Decatur Airport Decatur US
ICAO: KDEC
IATA: DEC
Category: Medium
Scheduled Services: Yes

Elevation: 682 ft
TransAlt. 18000 ft.

Airport Communications:
CHAMPAIGN APP/DEP:132.85
ATIS:126.35
CTAF:118.9
GND:121.75
ST LOUIS RDO:122.3
TWR:118.9
UNICOM:122.95

KDEC Zoom In..

If Map Doesn't Load, Click Here

Runways:

(A) RW 06 length 8496 ft width 150 ft
ILS 110.90 / hdg 60

(B) RW 12 length 6799 ft width 150 ft
---- / hdg 120

(C) RW 18 length 5298 ft width 150 ft
---- / hdg 180

(D) RW 24 length 8496 ft width 150 ft
---- / hdg 240

(E) RW 30 length 6799 ft width 150 ft
---- / hdg 300

(F) RW 36 length 5298 ft width 150 ft
---- / hdg 360

Location; KDEC
Day. 21 / Time. 14.54 Zulu
* Altimeter: 29.98
* Temperature: 26° c. 78.8°f.
* Wind from: 240° Speed 14 kn with Gusts up to 24 kn.
Dewpoint: 18° c.
Visibility: 10 Statute Miles.
Clouds: Broken 3300 ft.

KDEC 211454Z 24014G24KT 10SM BKN033 26/18 A2998 RMK AO2 SLP145 60000 T02560178 53017


Wind From 240°
Speed 14 kn.

 
 
jpsmedia.com for Web Design worldairports.se 2018   terms of use